sensor_id;sensor_type;location;lat;lon;timestamp;P1;durP1;ratioP1;P2;durP2;ratioP2
44850;SDS011;30583;48.714;9.386;2022-11-30T00:00:26;24.83;;;16.45;;
44850;SDS011;30583;48.714;9.386;2022-11-30T00:02:51;23.30;;;15.82;;
44850;SDS011;30583;48.714;9.386;2022-11-30T00:05:20;25.55;;;16.88;;
44850;SDS011;30583;48.714;9.386;2022-11-30T00:07:47;25.85;;;17.20;;
44850;SDS011;30583;48.714;9.386;2022-11-30T00:10:13;27.60;;;17.65;;
44850;SDS011;30583;48.714;9.386;2022-11-30T00:12:38;23.85;;;16.58;;
44850;SDS011;30583;48.714;9.386;2022-11-30T00:15:11;23.40;;;16.13;;
44850;SDS011;30583;48.714;9.386;2022-11-30T00:17:45;24.27;;;15.90;;
44850;SDS011;30583;48.714;9.386;2022-11-30T00:20:11;24.55;;;16.55;;
44850;SDS011;30583;48.714;9.386;2022-11-30T00:22:38;24.02;;;15.75;;
44850;SDS011;30583;48.714;9.386;2022-11-30T00:25:03;23.30;;;16.02;;
44850;SDS011;30583;48.714;9.386;2022-11-30T00:27:30;23.50;;;15.15;;
44850;SDS011;30583;48.714;9.386;2022-11-30T00:29:56;25.33;;;15.90;;
44850;SDS011;30583;48.714;9.386;2022-11-30T00:32:22;24.80;;;16.63;;
44850;SDS011;30583;48.714;9.386;2022-11-30T00:34:49;25.23;;;16.45;;
44850;SDS011;30583;48.714;9.386;2022-11-30T00:37:14;25.92;;;16.15;;
44850;SDS011;30583;48.714;9.386;2022-11-30T00:39:43;26.65;;;17.10;;
44850;SDS011;30583;48.714;9.386;2022-11-30T00:42:08;25.38;;;17.10;;
44850;SDS011;30583;48.714;9.386;2022-11-30T00:44:34;25.42;;;16.70;;
44850;SDS011;30583;48.714;9.386;2022-11-30T00:47:00;27.83;;;17.23;;
44850;SDS011;30583;48.714;9.386;2022-11-30T00:49:26;28.92;;;18.65;;
44850;SDS011;30583;48.714;9.386;2022-11-30T00:51:51;27.92;;;18.33;;
44850;SDS011;30583;48.714;9.386;2022-11-30T00:54:17;31.48;;;18.45;;
44850;SDS011;30583;48.714;9.386;2022-11-30T00:56:42;30.73;;;18.10;;
44850;SDS011;30583;48.714;9.386;2022-11-30T00:59:08;26.48;;;18.52;;
44850;SDS011;30583;48.714;9.386;2022-11-30T01:01:34;30.80;;;18.85;;
44850;SDS011;30583;48.714;9.386;2022-11-30T01:04:00;29.35;;;19.77;;
44850;SDS011;30583;48.714;9.386;2022-11-30T01:06:26;28.10;;;18.27;;
44850;SDS011;30583;48.714;9.386;2022-11-30T01:08:52;30.05;;;19.02;;
44850;SDS011;30583;48.714;9.386;2022-11-30T01:11:22;29.60;;;19.85;;
44850;SDS011;30583;48.714;9.386;2022-11-30T01:13:49;30.05;;;19.85;;
44850;SDS011;30583;48.714;9.386;2022-11-30T01:16:17;32.60;;;20.40;;
44850;SDS011;30583;48.714;9.386;2022-11-30T01:18:46;31.20;;;19.20;;
44850;SDS011;30583;48.714;9.386;2022-11-30T01:21:14;32.30;;;20.15;;
44850;SDS011;30583;48.714;9.386;2022-11-30T01:23:41;31.45;;;19.40;;
44850;SDS011;30583;48.714;9.386;2022-11-30T01:26:07;32.47;;;20.85;;
44850;SDS011;30583;48.714;9.386;2022-11-30T01:28:33;30.70;;;19.48;;
44850;SDS011;30583;48.714;9.386;2022-11-30T01:31:03;30.90;;;18.60;;
44850;SDS011;30583;48.714;9.386;2022-11-30T01:33:30;30.92;;;19.73;;
44850;SDS011;30583;48.714;9.386;2022-11-30T01:36:12;32.47;;;19.52;;
44850;SDS011;30583;48.714;9.386;2022-11-30T01:38:43;27.98;;;18.23;;
44850;SDS011;30583;48.714;9.386;2022-11-30T01:41:13;28.63;;;18.23;;
44850;SDS011;30583;48.714;9.386;2022-11-30T01:43:47;29.92;;;18.40;;
44850;SDS011;30583;48.714;9.386;2022-11-30T01:48:59;31.08;;;18.60;;
44850;SDS011;30583;48.714;9.386;2022-11-30T01:51:36;29.48;;;18.80;;
44850;SDS011;30583;48.714;9.386;2022-11-30T01:54:07;28.77;;;17.92;;
44850;SDS011;30583;48.714;9.386;2022-11-30T01:56:34;29.17;;;17.88;;
44850;SDS011;30583;48.714;9.386;2022-11-30T01:59:01;28.02;;;18.20;;
44850;SDS011;30583;48.714;9.386;2022-11-30T02:01:27;28.60;;;18.17;;
44850;SDS011;30583;48.714;9.386;2022-11-30T02:04:05;27.40;;;17.73;;
44850;SDS011;30583;48.714;9.386;2022-11-30T02:06:35;28.52;;;17.58;;
44850;SDS011;30583;48.714;9.386;2022-11-30T02:09:01;26.85;;;17.88;;
44850;SDS011;30583;48.714;9.386;2022-11-30T02:11:27;29.33;;;18.00;;
44850;SDS011;30583;48.714;9.386;2022-11-30T02:19:57;24.27;;;15.48;;
44850;SDS011;30583;48.714;9.386;2022-11-30T02:25:34;23.77;;;16.08;;
44850;SDS011;30583;48.714;9.386;2022-11-30T02:31:02;25.50;;;15.85;;
44850;SDS011;30583;48.714;9.386;2022-11-30T02:33:32;23.92;;;16.08;;
44850;SDS011;30583;48.714;9.386;2022-11-30T02:35:59;22.73;;;14.63;;
44850;SDS011;30583;48.714;9.386;2022-11-30T02:38:27;20.90;;;14.98;;
44850;SDS011;30583;48.714;9.386;2022-11-30T02:40:54;20.08;;;13.68;;
44850;SDS011;30583;48.714;9.386;2022-11-30T02:43:21;21.67;;;13.43;;
44850;SDS011;30583;48.714;9.386;2022-11-30T02:48:31;17.25;;;11.45;;
44850;SDS011;30583;48.714;9.386;2022-11-30T02:51:20;18.50;;;12.15;;
44850;SDS011;30583;48.714;9.386;2022-11-30T02:53:49;16.95;;;11.40;;
44850;SDS011;30583;48.714;9.386;2022-11-30T02:56:15;18.25;;;12.40;;
44850;SDS011;30583;48.714;9.386;2022-11-30T02:58:42;17.00;;;11.13;;
44850;SDS011;30583;48.714;9.386;2022-11-30T03:01:08;15.77;;;11.00;;
44850;SDS011;30583;48.714;9.386;2022-11-30T03:03:33;16.83;;;11.23;;
44850;SDS011;30583;48.714;9.386;2022-11-30T03:05:59;15.70;;;11.02;;
44850;SDS011;30583;48.714;9.386;2022-11-30T03:08:25;16.10;;;10.55;;
44850;SDS011;30583;48.714;9.386;2022-11-30T03:10:50;17.10;;;12.18;;
44850;SDS011;30583;48.714;9.386;2022-11-30T03:13:16;15.80;;;10.70;;
44850;SDS011;30583;48.714;9.386;2022-11-30T03:15:41;15.30;;;10.55;;
44850;SDS011;30583;48.714;9.386;2022-11-30T03:18:07;15.65;;;10.85;;
44850;SDS011;30583;48.714;9.386;2022-11-30T03:20:32;16.13;;;11.40;;
44850;SDS011;30583;48.714;9.386;2022-11-30T03:22:58;16.88;;;10.85;;
44850;SDS011;30583;48.714;9.386;2022-11-30T03:25:25;16.77;;;10.98;;
44850;SDS011;30583;48.714;9.386;2022-11-30T03:27:50;15.25;;;10.45;;
44850;SDS011;30583;48.714;9.386;2022-11-30T03:30:16;15.55;;;10.05;;
44850;SDS011;30583;48.714;9.386;2022-11-30T03:32:41;16.02;;;10.50;;
44850;SDS011;30583;48.714;9.386;2022-11-30T03:35:07;17.08;;;10.07;;
44850;SDS011;30583;48.714;9.386;2022-11-30T03:37:33;16.85;;;10.50;;
44850;SDS011;30583;48.714;9.386;2022-11-30T03:39:58;14.70;;;9.85;;
44850;SDS011;30583;48.714;9.386;2022-11-30T03:42:24;13.90;;;9.98;;
44850;SDS011;30583;48.714;9.386;2022-11-30T03:44:50;14.20;;;9.85;;
44850;SDS011;30583;48.714;9.386;2022-11-30T03:47:15;16.23;;;11.02;;
44850;SDS011;30583;48.714;9.386;2022-11-30T03:49:41;16.33;;;10.80;;
44850;SDS011;30583;48.714;9.386;2022-11-30T03:52:06;17.70;;;10.30;;
44850;SDS011;30583;48.714;9.386;2022-11-30T03:54:32;15.50;;;10.20;;
44850;SDS011;30583;48.714;9.386;2022-11-30T03:56:57;14.93;;;10.20;;
44850;SDS011;30583;48.714;9.386;2022-11-30T03:59:23;17.95;;;11.15;;
44850;SDS011;30583;48.714;9.386;2022-11-30T04:01:48;18.75;;;11.30;;
44850;SDS011;30583;48.714;9.386;2022-11-30T04:04:14;17.17;;;10.70;;
44850;SDS011;30583;48.714;9.386;2022-11-30T04:06:39;17.73;;;11.27;;
44850;SDS011;30583;48.714;9.386;2022-11-30T04:09:05;17.45;;;10.23;;
44850;SDS011;30583;48.714;9.386;2022-11-30T04:11:31;18.83;;;11.15;;
44850;SDS011;30583;48.714;9.386;2022-11-30T04:13:56;17.70;;;10.90;;
44850;SDS011;30583;48.714;9.386;2022-11-30T04:16:22;17.17;;;11.52;;
44850;SDS011;30583;48.714;9.386;2022-11-30T04:18:48;18.63;;;11.15;;
44850;SDS011;30583;48.714;9.386;2022-11-30T04:21:13;15.80;;;10.45;;
44850;SDS011;30583;48.714;9.386;2022-11-30T04:23:39;18.48;;;11.23;;
44850;SDS011;30583;48.714;9.386;2022-11-30T04:26:06;19.75;;;11.18;;
44850;SDS011;30583;48.714;9.386;2022-11-30T04:28:34;17.30;;;11.27;;
44850;SDS011;30583;48.714;9.386;2022-11-30T04:31:00;16.20;;;11.48;;
44850;SDS011;30583;48.714;9.386;2022-11-30T04:33:27;18.50;;;11.82;;
44850;SDS011;30583;48.714;9.386;2022-11-30T04:35:56;19.00;;;11.82;;
44850;SDS011;30583;48.714;9.386;2022-11-30T04:38:24;17.52;;;12.00;;
44850;SDS011;30583;48.714;9.386;2022-11-30T04:40:50;17.45;;;12.02;;
44850;SDS011;30583;48.714;9.386;2022-11-30T04:43:16;19.90;;;13.40;;
44850;SDS011;30583;48.714;9.386;2022-11-30T04:45:42;19.65;;;13.77;;
44850;SDS011;30583;48.714;9.386;2022-11-30T04:48:08;19.17;;;11.95;;
44850;SDS011;30583;48.714;9.386;2022-11-30T04:50:34;19.90;;;13.50;;
44850;SDS011;30583;48.714;9.386;2022-11-30T04:53:00;22.13;;;13.32;;
44850;SDS011;30583;48.714;9.386;2022-11-30T04:55:26;19.40;;;13.38;;
44850;SDS011;30583;48.714;9.386;2022-11-30T04:57:51;19.88;;;12.77;;
44850;SDS011;30583;48.714;9.386;2022-11-30T05:00:17;18.10;;;11.60;;
44850;SDS011;30583;48.714;9.386;2022-11-30T05:02:44;17.58;;;12.00;;
44850;SDS011;30583;48.714;9.386;2022-11-30T05:05:09;17.73;;;12.07;;
44850;SDS011;30583;48.714;9.386;2022-11-30T05:07:35;17.48;;;12.30;;
44850;SDS011;30583;48.714;9.386;2022-11-30T05:10:01;19.88;;;12.25;;
44850;SDS011;30583;48.714;9.386;2022-11-30T05:12:28;17.55;;;11.15;;
44850;SDS011;30583;48.714;9.386;2022-11-30T05:14:53;17.75;;;11.43;;
44850;SDS011;30583;48.714;9.386;2022-11-30T05:17:19;18.23;;;10.80;;
44850;SDS011;30583;48.714;9.386;2022-11-30T05:19:44;17.77;;;11.65;;
44850;SDS011;30583;48.714;9.386;2022-11-30T05:22:10;14.52;;;10.45;;
44850;SDS011;30583;48.714;9.386;2022-11-30T05:24:35;15.65;;;10.15;;
44850;SDS011;30583;48.714;9.386;2022-11-30T05:27:01;17.05;;;10.50;;
44850;SDS011;30583;48.714;9.386;2022-11-30T05:29:26;22.15;;;14.38;;
44850;SDS011;30583;48.714;9.386;2022-11-30T05:31:52;24.08;;;15.60;;
44850;SDS011;30583;48.714;9.386;2022-11-30T05:34:17;23.42;;;13.35;;
44850;SDS011;30583;48.714;9.386;2022-11-30T05:36:43;17.20;;;11.98;;
44850;SDS011;30583;48.714;9.386;2022-11-30T05:39:09;16.17;;;10.68;;
44850;SDS011;30583;48.714;9.386;2022-11-30T05:41:34;16.50;;;10.80;;
44850;SDS011;30583;48.714;9.386;2022-11-30T05:44:01;17.17;;;11.02;;
44850;SDS011;30583;48.714;9.386;2022-11-30T05:46:27;35.28;;;13.68;;
44850;SDS011;30583;48.714;9.386;2022-11-30T05:48:52;24.88;;;14.50;;
44850;SDS011;30583;48.714;9.386;2022-11-30T05:51:18;26.70;;;16.88;;
44850;SDS011;30583;48.714;9.386;2022-11-30T05:53:45;25.77;;;16.35;;
44850;SDS011;30583;48.714;9.386;2022-11-30T05:56:15;29.20;;;16.17;;
44850;SDS011;30583;48.714;9.386;2022-11-30T05:58:43;25.35;;;15.85;;
44850;SDS011;30583;48.714;9.386;2022-11-30T06:01:20;24.23;;;14.73;;
44850;SDS011;30583;48.714;9.386;2022-11-30T06:03:48;22.75;;;14.48;;
44850;SDS011;30583;48.714;9.386;2022-11-30T06:06:14;29.38;;;16.88;;
44850;SDS011;30583;48.714;9.386;2022-11-30T06:08:40;27.73;;;16.05;;
44850;SDS011;30583;48.714;9.386;2022-11-30T06:11:06;33.92;;;19.20;;
44850;SDS011;30583;48.714;9.386;2022-11-30T06:13:31;33.58;;;21.15;;
44850;SDS011;30583;48.714;9.386;2022-11-30T06:16:00;42.03;;;23.00;;
44850;SDS011;30583;48.714;9.386;2022-11-30T06:18:27;43.63;;;23.38;;
44850;SDS011;30583;48.714;9.386;2022-11-30T06:20:52;44.75;;;25.67;;
44850;SDS011;30583;48.714;9.386;2022-11-30T06:23:18;31.80;;;19.33;;
44850;SDS011;30583;48.714;9.386;2022-11-30T06:25:44;39.22;;;24.15;;
44850;SDS011;30583;48.714;9.386;2022-11-30T06:28:09;45.08;;;25.35;;
44850;SDS011;30583;48.714;9.386;2022-11-30T06:30:35;47.45;;;26.00;;
44850;SDS011;30583;48.714;9.386;2022-11-30T06:33:01;39.33;;;21.73;;
44850;SDS011;30583;48.714;9.386;2022-11-30T06:35:27;34.83;;;21.23;;
44850;SDS011;30583;48.714;9.386;2022-11-30T06:37:52;35.80;;;21.35;;
44850;SDS011;30583;48.714;9.386;2022-11-30T06:40:19;32.17;;;19.48;;
44850;SDS011;30583;48.714;9.386;2022-11-30T06:42:45;29.38;;;19.23;;
44850;SDS011;30583;48.714;9.386;2022-11-30T06:45:11;27.42;;;16.50;;
44850;SDS011;30583;48.714;9.386;2022-11-30T06:47:37;29.45;;;17.42;;
44850;SDS011;30583;48.714;9.386;2022-11-30T06:50:02;46.65;;;24.02;;
44850;SDS011;30583;48.714;9.386;2022-11-30T06:52:29;98.43;;;39.25;;
44850;SDS011;30583;48.714;9.386;2022-11-30T06:54:56;60.47;;;28.38;;
44850;SDS011;30583;48.714;9.386;2022-11-30T06:57:28;96.15;;;37.65;;
44850;SDS011;30583;48.714;9.386;2022-11-30T06:59:54;71.25;;;30.40;;
44850;SDS011;30583;48.714;9.386;2022-11-30T07:02:20;49.55;;;23.88;;
44850;SDS011;30583;48.714;9.386;2022-11-30T07:04:46;53.20;;;24.17;;
44850;SDS011;30583;48.714;9.386;2022-11-30T07:07:12;121.50;;;41.92;;
44850;SDS011;30583;48.714;9.386;2022-11-30T07:09:38;173.27;;;53.30;;
44850;SDS011;30583;48.714;9.386;2022-11-30T07:12:03;85.22;;;31.33;;
44850;SDS011;30583;48.714;9.386;2022-11-30T07:14:29;71.57;;;30.42;;
44850;SDS011;30583;48.714;9.386;2022-11-30T07:16:55;96.20;;;32.72;;
44850;SDS011;30583;48.714;9.386;2022-11-30T07:19:21;64.10;;;28.60;;
44850;SDS011;30583;48.714;9.386;2022-11-30T07:21:47;157.13;;;51.08;;
44850;SDS011;30583;48.714;9.386;2022-11-30T07:24:13;114.68;;;40.85;;
44850;SDS011;30583;48.714;9.386;2022-11-30T07:26:58;62.90;;;28.92;;
44850;SDS011;30583;48.714;9.386;2022-11-30T07:29:25;79.47;;;33.30;;
44850;SDS011;30583;48.714;9.386;2022-11-30T07:31:52;109.70;;;41.47;;
44850;SDS011;30583;48.714;9.386;2022-11-30T07:34:18;74.40;;;32.35;;
44850;SDS011;30583;48.714;9.386;2022-11-30T07:36:44;58.17;;;26.92;;
44850;SDS011;30583;48.714;9.386;2022-11-30T07:39:10;61.08;;;32.03;;
44850;SDS011;30583;48.714;9.386;2022-11-30T07:41:37;42.22;;;23.10;;
44850;SDS011;30583;48.714;9.386;2022-11-30T07:44:04;39.65;;;21.85;;
44850;SDS011;30583;48.714;9.386;2022-11-30T07:46:31;43.78;;;23.52;;
44850;SDS011;30583;48.714;9.386;2022-11-30T07:48:59;50.70;;;25.95;;
44850;SDS011;30583;48.714;9.386;2022-11-30T07:51:29;41.40;;;23.15;;
44850;SDS011;30583;48.714;9.386;2022-11-30T07:53:54;40.70;;;22.27;;
44850;SDS011;30583;48.714;9.386;2022-11-30T07:56:21;42.97;;;25.00;;
44850;SDS011;30583;48.714;9.386;2022-11-30T07:58:47;38.25;;;21.13;;
44850;SDS011;30583;48.714;9.386;2022-11-30T08:01:15;35.95;;;21.48;;
44850;SDS011;30583;48.714;9.386;2022-11-30T08:03:42;42.53;;;25.55;;
44850;SDS011;30583;48.714;9.386;2022-11-30T08:06:08;37.75;;;23.08;;
44850;SDS011;30583;48.714;9.386;2022-11-30T08:08:36;41.53;;;25.42;;
44850;SDS011;30583;48.714;9.386;2022-11-30T08:11:04;43.15;;;25.83;;
44850;SDS011;30583;48.714;9.386;2022-11-30T08:13:31;56.28;;;33.45;;
44850;SDS011;30583;48.714;9.386;2022-11-30T08:16:01;45.03;;;27.33;;
44850;SDS011;30583;48.714;9.386;2022-11-30T08:18:31;51.38;;;30.58;;
44850;SDS011;30583;48.714;9.386;2022-11-30T08:21:00;128.75;;;85.05;;
44850;SDS011;30583;48.714;9.386;2022-11-30T08:23:28;42.67;;;27.27;;
44850;SDS011;30583;48.714;9.386;2022-11-30T08:25:55;41.53;;;26.20;;
44850;SDS011;30583;48.714;9.386;2022-11-30T08:28:20;35.95;;;22.20;;
44850;SDS011;30583;48.714;9.386;2022-11-30T08:30:46;35.20;;;22.35;;
44850;SDS011;30583;48.714;9.386;2022-11-30T08:33:12;38.55;;;21.58;;
44850;SDS011;30583;48.714;9.386;2022-11-30T08:35:38;34.88;;;20.27;;
44850;SDS011;30583;48.714;9.386;2022-11-30T08:38:03;32.15;;;19.55;;
44850;SDS011;30583;48.714;9.386;2022-11-30T08:40:29;33.40;;;19.00;;
44850;SDS011;30583;48.714;9.386;2022-11-30T08:42:54;35.25;;;19.65;;
44850;SDS011;30583;48.714;9.386;2022-11-30T08:45:22;32.22;;;18.33;;
44850;SDS011;30583;48.714;9.386;2022-11-30T08:47:47;35.80;;;19.55;;
44850;SDS011;30583;48.714;9.386;2022-11-30T08:50:13;36.92;;;19.15;;
44850;SDS011;30583;48.714;9.386;2022-11-30T08:52:39;34.30;;;19.13;;
44850;SDS011;30583;48.714;9.386;2022-11-30T08:55:04;34.92;;;18.63;;
44850;SDS011;30583;48.714;9.386;2022-11-30T08:57:30;32.65;;;19.20;;
44850;SDS011;30583;48.714;9.386;2022-11-30T08:59:57;34.05;;;19.65;;
44850;SDS011;30583;48.714;9.386;2022-11-30T09:02:22;36.88;;;20.45;;
44850;SDS011;30583;48.714;9.386;2022-11-30T09:04:48;37.53;;;19.25;;
44850;SDS011;30583;48.714;9.386;2022-11-30T09:07:15;36.22;;;19.00;;
44850;SDS011;30583;48.714;9.386;2022-11-30T09:09:40;30.90;;;18.35;;
44850;SDS011;30583;48.714;9.386;2022-11-30T09:12:06;32.65;;;18.85;;
44850;SDS011;30583;48.714;9.386;2022-11-30T09:14:32;36.10;;;19.63;;
44850;SDS011;30583;48.714;9.386;2022-11-30T09:16:57;32.78;;;18.50;;
44850;SDS011;30583;48.714;9.386;2022-11-30T09:19:23;33.72;;;18.83;;
44850;SDS011;30583;48.714;9.386;2022-11-30T09:21:49;33.95;;;19.30;;
44850;SDS011;30583;48.714;9.386;2022-11-30T09:24:15;35.10;;;18.88;;
44850;SDS011;30583;48.714;9.386;2022-11-30T09:26:41;35.70;;;20.33;;
44850;SDS011;30583;48.714;9.386;2022-11-30T09:29:06;33.95;;;19.15;;
44850;SDS011;30583;48.714;9.386;2022-11-30T09:31:32;30.73;;;16.58;;
44850;SDS011;30583;48.714;9.386;2022-11-30T09:33:58;28.20;;;16.38;;
44850;SDS011;30583;48.714;9.386;2022-11-30T09:36:26;29.73;;;16.65;;
44850;SDS011;30583;48.714;9.386;2022-11-30T09:38:53;28.42;;;15.90;;
44850;SDS011;30583;48.714;9.386;2022-11-30T09:49:58;27.90;;;15.23;;
44850;SDS011;30583;48.714;9.386;2022-11-30T09:52:18;27.70;;;15.63;;
44850;SDS011;30583;48.714;9.386;2022-11-30T09:54:51;24.48;;;14.68;;
44850;SDS011;30583;48.714;9.386;2022-11-30T09:59:56;27.60;;;15.57;;
44850;SDS011;30583;48.714;9.386;2022-11-30T10:02:25;24.20;;;14.90;;
44850;SDS011;30583;48.714;9.386;2022-11-30T10:04:56;23.17;;;14.20;;
44850;SDS011;30583;48.714;9.386;2022-11-30T10:10:21;23.23;;;14.38;;
44850;SDS011;30583;48.714;9.386;2022-11-30T10:12:53;22.95;;;14.10;;
44850;SDS011;30583;48.714;9.386;2022-11-30T10:18:08;23.58;;;14.40;;
44850;SDS011;30583;48.714;9.386;2022-11-30T10:20:51;21.60;;;13.00;;
44850;SDS011;30583;48.714;9.386;2022-11-30T10:23:52;20.42;;;12.52;;
44850;SDS011;30583;48.714;9.386;2022-11-30T10:26:52;19.23;;;12.35;;
44850;SDS011;30583;48.714;9.386;2022-11-30T10:29:19;20.30;;;13.18;;
44850;SDS011;30583;48.714;9.386;2022-11-30T10:31:48;21.48;;;12.25;;
44850;SDS011;30583;48.714;9.386;2022-11-30T10:34:20;23.05;;;13.88;;
44850;SDS011;30583;48.714;9.386;2022-11-30T10:36:55;20.48;;;12.20;;
44850;SDS011;30583;48.714;9.386;2022-11-30T10:39:37;20.40;;;12.48;;
44850;SDS011;30583;48.714;9.386;2022-11-30T10:42:40;22.40;;;12.73;;
44850;SDS011;30583;48.714;9.386;2022-11-30T10:45:22;21.60;;;12.18;;
44850;SDS011;30583;48.714;9.386;2022-11-30T10:48:02;42.20;;;21.00;;
44850;SDS011;30583;48.714;9.386;2022-11-30T10:50:35;25.83;;;14.27;;
44850;SDS011;30583;48.714;9.386;2022-11-30T10:53:00;20.75;;;11.65;;
44850;SDS011;30583;48.714;9.386;2022-11-30T10:55:30;19.17;;;11.98;;
44850;SDS011;30583;48.714;9.386;2022-11-30T10:58:49;20.88;;;11.88;;
44850;SDS011;30583;48.714;9.386;2022-11-30T11:01:06;18.67;;;11.68;;
44850;SDS011;30583;48.714;9.386;2022-11-30T11:03:33;20.42;;;12.07;;
44850;SDS011;30583;48.714;9.386;2022-11-30T11:08:47;17.58;;;11.05;;
44850;SDS011;30583;48.714;9.386;2022-11-30T11:11:34;16.92;;;10.93;;
44850;SDS011;30583;48.714;9.386;2022-11-30T11:14:19;18.55;;;10.85;;
44850;SDS011;30583;48.714;9.386;2022-11-30T11:16:59;17.83;;;11.30;;
44850;SDS011;30583;48.714;9.386;2022-11-30T11:19:40;18.27;;;11.00;;
44850;SDS011;30583;48.714;9.386;2022-11-30T11:25:15;18.23;;;11.05;;
44850;SDS011;30583;48.714;9.386;2022-11-30T11:27:49;17.52;;;10.98;;
44850;SDS011;30583;48.714;9.386;2022-11-30T11:30:26;18.98;;;10.80;;
44850;SDS011;30583;48.714;9.386;2022-11-30T11:35:47;13.05;;;8.25;;
44850;SDS011;30583;48.714;9.386;2022-11-30T11:40:55;15.88;;;9.43;;
44850;SDS011;30583;48.714;9.386;2022-11-30T11:43:27;12.82;;;8.48;;
44850;SDS011;30583;48.714;9.386;2022-11-30T11:45:56;14.07;;;8.65;;
44850;SDS011;30583;48.714;9.386;2022-11-30T11:48:32;17.55;;;10.85;;
44850;SDS011;30583;48.714;9.386;2022-11-30T11:51:06;16.17;;;9.20;;
44850;SDS011;30583;48.714;9.386;2022-11-30T11:53:36;13.90;;;9.50;;
44850;SDS011;30583;48.714;9.386;2022-11-30T11:56:23;14.25;;;9.07;;
44850;SDS011;30583;48.714;9.386;2022-11-30T12:01:49;10.57;;;6.93;;
44850;SDS011;30583;48.714;9.386;2022-11-30T12:04:41;13.55;;;8.63;;
44850;SDS011;30583;48.714;9.386;2022-11-30T12:09:43;16.88;;;9.55;;
44850;SDS011;30583;48.714;9.386;2022-11-30T12:12:19;19.92;;;11.57;;
44850;SDS011;30583;48.714;9.386;2022-11-30T12:14:44;19.38;;;11.27;;
44850;SDS011;30583;48.714;9.386;2022-11-30T12:20:22;15.55;;;10.43;;
44850;SDS011;30583;48.714;9.386;2022-11-30T12:26:04;16.20;;;10.40;;
44850;SDS011;30583;48.714;9.386;2022-11-30T12:33:52;16.08;;;10.98;;
44850;SDS011;30583;48.714;9.386;2022-11-30T12:37:07;16.55;;;10.68;;
44850;SDS011;30583;48.714;9.386;2022-11-30T12:39:53;19.90;;;12.02;;
44850;SDS011;30583;48.714;9.386;2022-11-30T12:43:09;17.00;;;11.13;;
44850;SDS011;30583;48.714;9.386;2022-11-30T12:45:21;14.98;;;10.55;;
44850;SDS011;30583;48.714;9.386;2022-11-30T13:10:06;15.88;;;10.13;;
44850;SDS011;30583;48.714;9.386;2022-11-30T13:12:56;18.85;;;11.10;;
44850;SDS011;30583;48.714;9.386;2022-11-30T13:15:26;17.98;;;11.05;;
44850;SDS011;30583;48.714;9.386;2022-11-30T13:17:54;20.67;;;12.27;;
44850;SDS011;30583;48.714;9.386;2022-11-30T13:20:29;21.40;;;12.25;;
44850;SDS011;30583;48.714;9.386;2022-11-30T13:31:14;22.73;;;12.57;;
44850;SDS011;30583;48.714;9.386;2022-11-30T13:33:47;22.00;;;13.20;;
44850;SDS011;30583;48.714;9.386;2022-11-30T13:41:34;22.27;;;12.70;;
44850;SDS011;30583;48.714;9.386;2022-11-30T13:44:01;20.13;;;12.43;;
44850;SDS011;30583;48.714;9.386;2022-11-30T13:46:27;20.10;;;12.18;;
44850;SDS011;30583;48.714;9.386;2022-11-30T13:51:44;12.20;;;6.82;;
44850;SDS011;30583;48.714;9.386;2022-11-30T13:57:14;16.52;;;9.63;;
44850;SDS011;30583;48.714;9.386;2022-11-30T13:59:52;16.65;;;8.80;;
44850;SDS011;30583;48.714;9.386;2022-11-30T14:07:40;16.73;;;10.23;;
44850;SDS011;30583;48.714;9.386;2022-11-30T14:16:17;17.98;;;11.52;;
44850;SDS011;30583;48.714;9.386;2022-11-30T14:18:36;19.08;;;12.13;;
44850;SDS011;30583;48.714;9.386;2022-11-30T14:21:12;16.95;;;11.55;;
44850;SDS011;30583;48.714;9.386;2022-11-30T14:24:00;19.05;;;12.48;;
44850;SDS011;30583;48.714;9.386;2022-11-30T14:26:37;17.17;;;11.80;;
44850;SDS011;30583;48.714;9.386;2022-11-30T14:34:15;21.80;;;12.45;;
44850;SDS011;30583;48.714;9.386;2022-11-30T14:36:47;18.20;;;11.75;;
44850;SDS011;30583;48.714;9.386;2022-11-30T14:39:22;18.50;;;11.80;;
44850;SDS011;30583;48.714;9.386;2022-11-30T14:41:48;16.67;;;10.75;;
44850;SDS011;30583;48.714;9.386;2022-11-30T14:44:14;22.17;;;12.35;;
44850;SDS011;30583;48.714;9.386;2022-11-30T14:46:39;19.90;;;11.02;;
44850;SDS011;30583;48.714;9.386;2022-11-30T14:51:42;15.18;;;9.25;;
44850;SDS011;30583;48.714;9.386;2022-11-30T14:54:13;16.35;;;10.02;;
44850;SDS011;30583;48.714;9.386;2022-11-30T14:56:51;17.00;;;10.30;;
44850;SDS011;30583;48.714;9.386;2022-11-30T15:02:18;16.42;;;8.98;;
44850;SDS011;30583;48.714;9.386;2022-11-30T15:04:53;16.70;;;9.90;;
44850;SDS011;30583;48.714;9.386;2022-11-30T15:07:20;18.90;;;10.10;;
44850;SDS011;30583;48.714;9.386;2022-11-30T15:09:48;15.43;;;9.65;;
44850;SDS011;30583;48.714;9.386;2022-11-30T15:12:19;18.50;;;9.82;;
44850;SDS011;30583;48.714;9.386;2022-11-30T15:17:31;18.00;;;10.40;;
44850;SDS011;30583;48.714;9.386;2022-11-30T15:20:15;19.20;;;10.48;;
44850;SDS011;30583;48.714;9.386;2022-11-30T15:22:48;15.85;;;9.65;;
44850;SDS011;30583;48.714;9.386;2022-11-30T15:25:13;17.30;;;10.07;;
44850;SDS011;30583;48.714;9.386;2022-11-30T15:27:39;16.80;;;9.05;;
44850;SDS011;30583;48.714;9.386;2022-11-30T15:30:05;16.45;;;10.20;;
44850;SDS011;30583;48.714;9.386;2022-11-30T15:32:37;15.85;;;9.85;;
44850;SDS011;30583;48.714;9.386;2022-11-30T15:35:02;19.30;;;10.18;;
44850;SDS011;30583;48.714;9.386;2022-11-30T15:37:32;14.35;;;8.30;;
44850;SDS011;30583;48.714;9.386;2022-11-30T15:42:32;16.27;;;7.97;;
44850;SDS011;30583;48.714;9.386;2022-11-30T15:47:48;14.98;;;8.77;;
44850;SDS011;30583;48.714;9.386;2022-11-30T15:52:44;16.35;;;8.75;;
44850;SDS011;30583;48.714;9.386;2022-11-30T16:06:28;11.85;;;7.22;;
44850;SDS011;30583;48.714;9.386;2022-11-30T16:09:03;12.93;;;7.30;;
44850;SDS011;30583;48.714;9.386;2022-11-30T16:11:39;8.05;;;4.90;;
44850;SDS011;30583;48.714;9.386;2022-11-30T16:14:07;10.88;;;5.13;;
44850;SDS011;30583;48.714;9.386;2022-11-30T16:16:38;8.80;;;5.22;;
44850;SDS011;30583;48.714;9.386;2022-11-30T16:19:03;8.45;;;4.75;;
44850;SDS011;30583;48.714;9.386;2022-11-30T16:21:29;6.65;;;4.43;;
44850;SDS011;30583;48.714;9.386;2022-11-30T16:23:54;7.85;;;4.50;;
44850;SDS011;30583;48.714;9.386;2022-11-30T16:26:20;9.35;;;4.70;;
44850;SDS011;30583;48.714;9.386;2022-11-30T16:28:46;7.22;;;4.13;;
44850;SDS011;30583;48.714;9.386;2022-11-30T16:31:15;10.25;;;6.55;;
44850;SDS011;30583;48.714;9.386;2022-11-30T16:33:43;12.20;;;7.75;;
44850;SDS011;30583;48.714;9.386;2022-11-30T16:36:14;17.60;;;9.60;;
44850;SDS011;30583;48.714;9.386;2022-11-30T16:38:41;13.13;;;6.80;;
44850;SDS011;30583;48.714;9.386;2022-11-30T16:41:12;16.73;;;9.15;;
44850;SDS011;30583;48.714;9.386;2022-11-30T16:43:39;19.20;;;9.23;;
44850;SDS011;30583;48.714;9.386;2022-11-30T16:46:08;9.32;;;5.68;;
44850;SDS011;30583;48.714;9.386;2022-11-30T16:48:37;9.43;;;5.93;;
44850;SDS011;30583;48.714;9.386;2022-11-30T16:51:03;8.30;;;6.40;;
44850;SDS011;30583;48.714;9.386;2022-11-30T16:53:29;7.32;;;5.53;;
44850;SDS011;30583;48.714;9.386;2022-11-30T16:55:55;11.10;;;5.22;;
44850;SDS011;30583;48.714;9.386;2022-11-30T16:58:20;8.63;;;4.68;;
44850;SDS011;30583;48.714;9.386;2022-11-30T17:00:46;7.05;;;4.45;;